Bei Facebook empfehlenBei Twitter postenGoogle plusPinterest

Das Wetter im Erzgebirge am 17.09.2016

Wetter und Klima am 17.09.2016 Holzhau im Erzgebirge (630m ü.NN)
Letzte gemessene Temperatur und Uhrzeit der Messung23:45:00 Uhr13.60 °C
Temperatur (Maximum / Höchstwert) und Uhrzeit der Messung03:00:00 Uhr14.90 °C
Temperatur (Minimum / Tiefstwert) und Uhrzeit der Messung15:00:0013.40 °C
Errechneter Absolutwert der Temperaturschwankungen zwischen Tmin und Tmax des Tages1.50 K
Errechnete Tagesmitteltemperatur14.07917 °C
Gesamt - Niederschlag des Tages (in flüssiger Form)38.33 Liter / m²
Luftdruck (Maximum / Höchstwert) und Zeitpunkt der Messung00:00:00 Uhr1009.60 hPa
Luftdruck (Minimum / Tiefstwert) und Zeitpunkt der Messung14:30:00 Uhr1007.00 hPa
Errechneter Absolutwert der Luftdruckschwankungen des Tages2.60 hPa
Höchste gemessene Windgeschwindigkeit und Uhrzeit der Messung23:45:00 Uhr0.00 km/h
Errechnete Windhäufigkeit in Relation zu den Messwerten des Tages0.00000 %
Niedrigste Windkühle (Windchill) und Zeitpunkt der Messung15:00:00 Uhr13.40 °C
Taupunkt (Maximum / Höchstwert) und Uhrzeit der Messung12:45:00 Uhr13.60 °C
Taupunkt (Minimum / Tiefstwert) und Uhrzeit der Messung15:00:0012.60 °C
Anzahl der automatisch eingelesenen Messwerte 96

Detaillierte Wetter- und Klima- Messwerte für den 17.09.2016 in Holzhau im Erzgebirge (630m ü.NN)
ZeitTemperaturLuftdruckRel. LuftfeuchteWindWindrichtungWindchillTaupunktNiederschlag l/m²
23:45:0013.60 °C1009.00 hPa95.00 %12.80 °C38.33
23:30:0013.60 °C1009.20 hPa95.00 %12.80 °C38.33
23:15:0013.60 °C1009.10 hPa95.00 %12.80 °C38.33
23:00:0013.50 °C1009.10 hPa95.00 %12.70 °C38.33
22:45:0013.50 °C1009.00 hPa95.00 %12.70 °C38.33
22:30:0013.50 °C1009.00 hPa95.00 %12.70 °C38.33
22:15:0013.50 °C1009.00 hPa95.00 %12.70 °C38.33
22:00:0013.60 °C1009.00 hPa95.00 %12.80 °C38.33
21:45:0013.60 °C1008.80 hPa95.00 %12.80 °C38.33
21:30:0013.80 °C1008.90 hPa95.00 %13.00 °C38.33
21:15:0013.90 °C1008.80 hPa95.00 %13.10 °C37.81
21:00:0013.80 °C1008.60 hPa96.00 %13.20 °C37.81
20:45:0013.60 °C1008.50 hPa95.00 %12.80 °C37.81
20:30:0013.60 °C1008.30 hPa95.00 %12.80 °C37.30
20:15:0013.60 °C1008.10 hPa95.00 %12.80 °C36.78
20:00:0013.60 °C1008.00 hPa95.00 %12.80 °C36.26
19:45:0013.50 °C1007.80 hPa95.00 %12.70 °C36.26
19:30:0013.50 °C1007.80 hPa95.00 %12.70 °C35.22
19:15:0013.50 °C1007.80 hPa95.00 %12.70 °C34.71
19:00:0013.60 °C1007.80 hPa95.00 %12.80 °C34.19
18:45:0013.60 °C1007.80 hPa95.00 %12.80 °C34.19
18:30:0013.60 °C1007.70 hPa95.00 %12.80 °C33.67
18:15:0013.60 °C1007.70 hPa95.00 %12.80 °C32.63
18:00:0013.80 °C1007.60 hPa95.00 %13.00 °C31.08
17:45:0013.80 °C1007.60 hPa95.00 %13.00 °C30.04
17:30:0013.60 °C1007.50 hPa95.00 %12.80 °C28.49
17:15:0013.60 °C1007.40 hPa95.00 %12.80 °C28.49
17:00:0013.80 °C1007.50 hPa95.00 %13.00 °C28.49
16:45:0013.80 °C1007.40 hPa95.00 %13.00 °C28.49
16:30:0013.60 °C1007.30 hPa95.00 %12.80 °C28.49
16:15:0013.60 °C1007.30 hPa95.00 %12.80 °C28.49
16:00:0013.50 °C1007.30 hPa95.00 %12.70 °C28.49
15:45:0013.50 °C1007.40 hPa95.00 %12.70 °C28.49
15:30:0013.60 °C1007.40 hPa95.00 %12.80 °C27.97
15:15:0013.50 °C1007.20 hPa95.00 %12.70 °C27.97
15:00:0013.40 °C1007.20 hPa95.00 %12.60 °C27.97
14:45:0013.50 °C1007.20 hPa95.00 %12.70 °C26.94
14:30:0013.60 °C1007.00 hPa95.00 %12.80 °C26.94
14:15:0013.60 °C1007.00 hPa95.00 %12.80 °C24.86
14:00:0013.60 °C1007.00 hPa95.00 %12.80 °C24.35
13:45:0013.80 °C1007.00 hPa95.00 %13.00 °C23.83
13:30:0014.00 °C1007.10 hPa95.00 %13.20 °C23.31
13:15:0014.10 °C1007.20 hPa95.00 %13.30 °C23.31
13:00:0014.20 °C1007.20 hPa95.00 %13.40 °C23.31
12:45:0014.40 °C1007.20 hPa95.00 %13.60 °C23.31
12:30:0014.40 °C1007.10 hPa95.00 %13.60 °C23.31
12:15:0014.40 °C1007.30 hPa95.00 %13.60 °C23.31
12:00:0014.20 °C1007.20 hPa95.00 %13.40 °C23.31
11:45:0014.10 °C1007.40 hPa95.00 %13.30 °C23.31
11:30:0014.10 °C1007.20 hPa95.00 %13.30 °C23.31
11:15:0014.20 °C1007.10 hPa95.00 %13.40 °C23.31
11:00:0014.30 °C1007.00 hPa95.00 %13.50 °C23.31
10:45:0014.10 °C1007.30 hPa95.00 %13.30 °C23.31
10:30:0013.90 °C1007.30 hPa95.00 %13.10 °C22.79
10:15:0013.90 °C1007.50 hPa94.00 %13.00 °C21.76
10:00:0013.90 °C1007.70 hPa94.00 %13.00 °C21.24
09:45:0014.10 °C1007.60 hPa94.00 %13.10 °C20.20
09:30:0014.10 °C1007.60 hPa94.00 %13.10 °C18.65
09:15:0014.10 °C1007.40 hPa94.00 %13.10 °C17.61
09:00:0014.10 °C1007.40 hPa94.00 %13.10 °C16.06
08:45:0014.10 °C1007.70 hPa94.00 %13.10 °C14.50
08:30:0014.10 °C1007.60 hPa94.00 %13.10 °C12.95
08:15:0014.30 °C1007.80 hPa94.00 %13.30 °C11.40
08:00:0014.30 °C1007.80 hPa94.00 %13.30 °C10.36
07:45:0014.30 °C1007.80 hPa94.00 %13.30 °C9.32
07:30:0014.30 °C1008.00 hPa94.00 %13.30 °C7.25
07:15:0014.30 °C1007.70 hPa94.00 %13.30 °C5.70
07:00:0014.30 °C1007.70 hPa94.00 %13.30 °C3.63
06:45:0014.30 °C1007.80 hPa94.00 %13.30 °C2.07
06:30:0014.30 °C1007.80 hPa94.00 %13.30 °C0.52
06:15:0014.40 °C1007.60 hPa94.00 %13.40 °C 
06:00:0014.40 °C1007.70 hPa94.00 %13.40 °C 
05:45:0014.40 °C1007.70 hPa93.00 %13.30 °C 
05:30:0014.40 °C1007.70 hPa93.00 %13.30 °C 
05:15:0014.40 °C1008.00 hPa93.00 %13.30 °C 
05:00:0014.40 °C1007.90 hPa93.00 %13.30 °C 
04:45:0014.40 °C1007.90 hPa93.00 %13.30 °C 
04:30:0014.40 °C1008.00 hPa92.00 %13.10 °C 
04:15:0014.50 °C1008.00 hPa92.00 %13.20 °C 
04:00:0014.60 °C1008.10 hPa92.00 %13.30 °C 
03:45:0014.80 °C1008.20 hPa92.00 %13.50 °C 
03:30:0014.80 °C1008.50 hPa92.00 %13.50 °C 
03:15:0014.80 °C1008.70 hPa92.00 %13.50 °C 
03:00:0014.90 °C1008.50 hPa92.00 %13.60 °C 
02:45:0014.90 °C1008.40 hPa92.00 %13.60 °C 
02:30:0014.90 °C1008.40 hPa92.00 %13.60 °C 
02:15:0014.90 °C1008.70 hPa92.00 %13.60 °C 
02:00:0014.90 °C1008.60 hPa91.00 %13.40 °C 
01:45:0014.90 °C1008.70 hPa91.00 %13.40 °C 
01:30:0014.90 °C1009.00 hPa91.00 %13.40 °C 
01:15:0014.90 °C1009.00 hPa90.00 %13.30 °C 
01:00:0014.90 °C1009.00 hPa90.00 %13.30 °C 
00:45:0014.90 °C1009.10 hPa90.00 %13.30 °C 
00:30:0014.90 °C1009.40 hPa90.00 %13.30 °C 
00:15:0014.90 °C1009.50 hPa89.00 %13.10 °C 
00:00:0014.90 °C1009.60 hPa88.00 %12.90 °C 

Permanenter Link zu dieser Seite: Wetter im Erzgebirge am 17.09.2016
Performance-Info: Die Erstellung der Seite / Statistik(en) / Tabelle(n) erforderte 5 Datenbankserver-Abfrage(n) und dauerte 100 Millisekunden. (Dieser Messwert ist von der Gesamt-Auslastung des Servers abhängig.)
Erzgebirge - Wetter | Erzgebirge - Wetter (Mobilgeräte) | Komplette Klimadatenbank